Time;durP1;ratioP1;P1;durP2;ratioP2;P2;SDS_P1;SDS_P2;PMS_P1;PMS_P2;Temp;Humidity;BMP_temperature;BMP_pressure;BME280_temperature;BME280_humidity;BME280_pressure;Samples;Min_cycle;Max_cycle;Signal;HPM_P1;HPM_P2
2021/12/28 00:00:14;;;;;;;9.25;2.03;;;;;;;14.20;68.54;101353.44;5037992;28;20488;-75
2021/12/28 00:02:43;;;;;;;10.30;1.65;;;;;;;14.23;68.51;101352.59;5048957;28;20099;-74
2021/12/28 00:05:11;;;;;;;7.18;1.92;;;;;;;14.23;68.61;101350.84;5054715;28;20045;-75
2021/12/28 00:07:39;;;;;;;6.15;1.23;;;;;;;14.25;68.50;101346.41;5049723;28;20095;-75
2021/12/28 00:10:09;;;;;;;8.18;1.30;;;;;;;14.28;68.42;101346.44;5050048;28;20132;-75
2021/12/28 00:12:38;;;;;;;5.30;1.55;;;;;;;14.28;68.45;101334.94;5057079;28;20087;-75
2021/12/28 00:15:19;;;;;;;9.52;1.00;;;;;;;14.31;68.29;101343.81;5063952;28;20662;-74
2021/12/28 00:18:02;;;;;;;3.28;0.88;;;;;;;14.35;68.20;101348.28;5047935;28;20497;-74
2021/12/28 00:20:31;;;;;;;6.22;1.52;;;;;;;14.39;68.06;101335.94;5049022;28;20091;-74
2021/12/28 00:23:00;;;;;;;3.78;1.40;;;;;;;14.39;68.00;101341.25;5052595;28;20049;-74
2021/12/28 00:25:28;;;;;;;2.55;1.17;;;;;;;14.39;67.78;101345.69;5035526;28;20048;-74
2021/12/28 00:27:55;;;;;;;4.15;0.90;;;;;;;14.39;67.66;101337.72;5056749;28;20053;-75
2021/12/28 00:30:24;;;;;;;6.47;1.45;;;;;;;14.37;67.69;101337.69;5047439;28;20041;-75
2021/12/28 00:32:56;;;;;;;5.20;0.95;;;;;;;14.35;67.81;101340.31;5077020;28;20036;-76
2021/12/28 00:35:26;;;;;;;9.45;1.73;;;;;;;14.33;67.71;101336.75;5029315;28;20121;-75
2021/12/28 00:37:54;;;;;;;2.80;0.80;;;;;;;14.28;67.87;101337.59;5054642;28;20047;-75
2021/12/28 00:40:22;;;;;;;5.72;1.35;;;;;;;14.27;67.84;101341.13;5062904;28;20037;-75
2021/12/28 00:42:50;;;;;;;2.47;1.23;;;;;;;14.23;67.87;101342.88;5052664;28;20037;-74
2021/12/28 00:45:18;;;;;;;3.45;1.45;;;;;;;14.23;67.87;101340.22;5049088;28;20144;-75
2021/12/28 00:47:46;;;;;;;5.85;1.10;;;;;;;14.23;67.75;101329.59;5044751;28;20129;-74
2021/12/28 00:50:19;;;;;;;6.20;1.38;;;;;;;14.26;67.75;101320.75;5053955;28;20481;-74
2021/12/28 00:52:48;;;;;;;4.97;1.40;;;;;;;14.23;67.79;101321.63;5072628;28;20044;-75
2021/12/28 00:55:17;;;;;;;1.33;0.60;;;;;;;14.22;67.74;101319.84;5038439;28;20045;-74
2021/12/28 00:57:46;;;;;;;3.17;1.20;;;;;;;14.23;67.69;101311.00;5048736;28;20044;-75
2021/12/28 01:00:18;;;;;;;4.13;1.58;;;;;;;14.26;67.54;101311.00;5059011;28;20492;-74
2021/12/28 01:02:46;;;;;;;3.92;1.10;;;;;;;14.24;67.56;101315.41;5047087;28;20044;-74
2021/12/28 01:05:16;;;;;;;5.13;1.52;;;;;;;14.25;67.60;101306.56;5063182;28;20045;-74
2021/12/28 01:07:44;;;;;;;12.93;2.47;;;;;;;14.23;67.63;101313.66;5057766;28;20449;-74
2021/12/28 01:10:15;;;;;;;5.57;2.05;;;;;;;14.20;67.59;101308.31;5040970;28;20566;-74
2021/12/28 01:12:44;;;;;;;6.22;1.20;;;;;;;14.18;67.70;101309.16;5055528;28;20122;-75
2021/12/28 01:15:15;;;;;;;5.20;1.80;;;;;;;14.18;67.71;101302.06;5047449;28;20056;-75
2021/12/28 01:17:43;;;;;;;4.55;0.77;;;;;;;14.16;67.72;101297.66;5080099;28;20102;-74
2021/12/28 01:20:14;;;;;;;2.40;1.00;;;;;;;14.15;67.82;101298.50;5048687;28;20130;-74
2021/12/28 01:22:44;;;;;;;4.22;1.20;;;;;;;14.14;67.88;101302.94;5039643;28;20044;-74
2021/12/28 01:25:14;;;;;;;1.50;0.63;;;;;;;14.12;67.87;101309.97;5052293;28;20153;-74
2021/12/28 01:27:42;;;;;;;3.20;1.17;;;;;;;14.15;67.70;101299.41;5065355;28;20041;-75
2021/12/28 01:30:12;;;;;;;4.97;1.33;;;;;;;14.15;67.83;101301.16;5068147;28;20049;-74
2021/12/28 01:32:41;;;;;;;8.15;1.33;;;;;;;14.15;67.68;101298.50;5055743;28;20095;-74
2021/12/28 01:35:12;;;;;;;7.43;1.17;;;;;;;14.13;67.45;101297.59;5062309;28;20047;-74
2021/12/28 01:37:39;;;;;;;4.53;1.48;;;;;;;14.06;67.72;101301.97;5065690;28;20136;-75
2021/12/28 01:40:14;;;;;;;6.30;1.55;;;;;;;14.03;67.60;101296.63;5046749;28;20045;-74
2021/12/28 01:43:00;;;;;;;4.68;1.20;;;;;;;14.00;67.68;101291.28;5046784;28;20094;-74
2021/12/28 01:45:33;;;;;;;4.90;2.03;;;;;;;13.95;67.67;101293.91;5061762;28;20096;-75
2021/12/28 01:48:02;;;;;;;3.80;1.10;;;;;;;13.91;67.58;101288.56;5047953;28;20499;-74
2021/12/28 01:50:30;;;;;;;6.28;1.20;;;;;;;13.87;67.60;101279.66;5046420;28;20507;-75
2021/12/28 01:52:58;;;;;;;3.63;1.48;;;;;;;13.87;67.41;101271.69;5048141;28;20040;-74
2021/12/28 01:55:27;;;;;;;5.78;1.20;;;;;;;13.87;67.41;101266.38;5065022;28;20064;-75
2021/12/28 01:57:55;;;;;;;3.92;1.10;;;;;;;13.87;67.20;101263.72;5054355;28;20448;-74
2021/12/28 02:00:23;;;;;;;1.58;0.70;;;;;;;13.86;67.00;101269.91;5056867;28;20115;-77
2021/12/28 02:02:50;;;;;;;1.58;0.85;;;;;;;13.87;67.03;101273.44;5063871;28;20045;-75
2021/12/28 02:05:18;;;;;;;2.63;0.82;;;;;;;13.84;66.85;101268.13;5036965;28;20404;-75
2021/12/28 02:07:46;;;;;;;2.78;1.30;;;;;;;13.86;66.85;101264.59;5045494;28;20071;-74
2021/12/28 02:10:14;;;;;;;5.30;1.25;;;;;;;13.86;66.84;101255.75;5054949;28;20175;-74
2021/12/28 02:12:43;;;;;;;3.38;1.23;;;;;;;13.87;66.62;101252.22;5059007;28;20037;-74
2021/12/28 02:15:13;;;;;;;5.18;1.25;;;;;;;13.87;66.46;101254.88;5055952;28;20065;-74
2021/12/28 02:17:42;;;;;;;6.13;2.97;;;;;;;13.87;66.43;101249.56;5047218;28;20037;-75
2021/12/28 02:20:14;;;;;;;2.15;0.98;;;;;;;13.87;66.40;101262.84;5057353;28;20099;-75
2021/12/28 02:22:42;;;;;;;3.33;1.42;;;;;;;13.87;66.35;101255.75;5050427;28;20041;-74
2021/12/28 02:25:11;;;;;;;3.10;1.15;;;;;;;13.89;66.26;101254.03;5054508;28;20048;-75
2021/12/28 02:27:40;;;;;;;7.32;1.55;;;;;;;13.92;66.14;101247.84;5070540;28;20049;-75
2021/12/28 02:30:12;;;;;;;6.50;1.20;;;;;;;13.92;66.22;101248.72;5057112;28;20511;-74
2021/12/28 02:32:41;;;;;;;3.92;1.35;;;;;;;13.93;66.18;101242.56;5071422;28;20432;-75
2021/12/28 02:35:13;;;;;;;3.70;1.10;;;;;;;13.93;66.22;101245.22;5067102;28;20098;-75
2021/12/28 02:37:41;;;;;;;8.82;1.52;;;;;;;13.91;66.22;101246.94;5067884;28;20045;-74
2021/12/28 02:40:14;;;;;;;3.85;1.13;;;;;;;13.91;66.26;101252.25;5063173;28;20041;-75
2021/12/28 02:42:42;;;;;;;6.45;1.83;;;;;;;13.88;66.29;101249.59;5051421;28;20036;-74
2021/12/28 02:45:12;;;;;;;5.38;1.67;;;;;;;13.85;66.50;101241.59;5048782;28;20060;-75
2021/12/28 02:47:42;;;;;;;4.70;1.10;;;;;;;13.83;66.69;101243.34;5042427;28;20048;-75
2021/12/28 02:50:15;;;;;;;2.50;1.20;;;;;;;13.84;66.60;101246.91;5062502;28;20037;-75
2021/12/28 02:52:43;;;;;;;5.65;1.13;;;;;;;13.81;66.92;101245.09;5068930;28;20111;-74
2021/12/28 02:55:13;;;;;;;3.67;1.50;;;;;;;13.81;66.74;101236.22;5068617;28;20044;-75
2021/12/28 02:57:47;;;;;;;4.68;1.02;;;;;;;13.77;67.03;101245.94;5057213;28;20037;-75
2021/12/28 03:00:29;;;;;;;2.28;1.15;;;;;;;13.72;67.09;101239.69;5058808;28;20054;-74
2021/12/28 03:02:57;;;;;;;5.05;2.35;;;;;;;13.70;67.45;101246.75;5063522;28;20075;-74
2021/12/28 03:05:26;;;;;;;2.75;1.27;;;;;;;13.70;67.40;101253.81;5048735;28;20425;-74
2021/12/28 03:07:54;;;;;;;3.75;1.20;;;;;;;13.70;67.50;101241.44;5051961;28;20036;-74
2021/12/28 03:10:22;;;;;;;3.17;1.30;;;;;;;13.69;67.62;101252.03;5059785;28;20040;-74
2021/12/28 03:12:49;;;;;;;3.65;1.13;;;;;;;13.68;67.66;101243.19;5058511;28;20115;-74
2021/12/28 03:15:17;;;;;;;3.92;1.48;;;;;;;13.66;67.69;101251.97;5056391;28;20714;-74
2021/12/28 03:17:45;;;;;;;5.30;1.20;;;;;;;13.62;67.92;101245.78;5070695;28;20072;-75
2021/12/28 03:20:14;;;;;;;5.90;1.33;;;;;;;13.62;67.95;101247.53;5078354;28;20057;-74
2021/12/28 03:22:44;;;;;;;6.70;1.55;;;;;;;13.63;67.97;101244.00;5067342;28;20051;-75
2021/12/28 03:25:13;;;;;;;3.65;1.35;;;;;;;13.61;68.19;101248.41;5065890;28;20389;-74
2021/12/28 03:27:41;;;;;;;4.60;1.40;;;;;;;13.58;68.25;101241.31;5061337;28;20094;-74
2021/12/28 03:30:14;;;;;;;8.00;1.40;;;;;;;13.60;68.32;101241.31;5056961;28;20048;-74
2021/12/28 03:32:42;;;;;;;6.32;1.70;;;;;;;13.56;68.52;101240.41;5049930;28;20044;-74
2021/12/28 03:35:12;;;;;;;9.45;1.92;;;;;;;13.56;68.69;101238.63;5068214;28;20048;-75
2021/12/28 03:37:41;;;;;;;5.43;1.80;;;;;;;13.57;68.72;101240.44;5067645;28;20124;-75
2021/12/28 03:40:14;;;;;;;3.85;1.38;;;;;;;13.61;68.70;101238.69;5051256;28;20044;-74
2021/12/28 03:42:43;;;;;;;6.10;1.45;;;;;;;13.59;68.75;101236.91;5049894;28;20053;-74
2021/12/28 03:45:12;;;;;;;3.10;1.05;;;;;;;13.60;68.85;101236.91;5050291;28;20045;-74
2021/12/28 03:47:40;;;;;;;7.57;1.38;;;;;;;13.59;68.95;101221.84;5054579;28;20750;-75
2021/12/28 03:50:11;;;;;;;2.42;1.10;;;;;;;13.65;68.95;101227.25;5049120;28;20040;-74
2021/12/28 03:52:40;;;;;;;2.53;1.25;;;;;;;13.66;68.98;101225.47;5049369;28;20698;-74
2021/12/28 03:55:10;;;;;;;2.28;1.17;;;;;;;13.66;69.02;101230.75;5059029;28;20047;-75
2021/12/28 03:57:39;;;;;;;6.22;1.20;;;;;;;13.62;69.07;101231.63;5070193;28;20029;-74
2021/12/28 04:00:12;;;;;;;6.90;1.70;;;;;;;13.63;69.24;101234.28;5050252;28;20049;-75
2021/12/28 04:02:41;;;;;;;5.47;1.40;;;;;;;13.66;69.27;101231.66;5053197;28;20055;-74
2021/12/28 04:05:09;;;;;;;5.85;1.45;;;;;;;13.67;69.34;101241.41;5062875;28;20492;-74
2021/12/28 04:07:37;;;;;;;3.50;1.23;;;;;;;13.68;69.03;101229.03;5067780;28;20047;-75
2021/12/28 04:10:08;;;;;;;3.78;1.48;;;;;;;13.67;69.31;101232.53;5046991;28;20063;-75
2021/12/28 04:12:38;;;;;;;4.13;1.20;;;;;;;13.68;69.38;101235.22;5049769;28;20093;-74
2021/12/28 04:15:08;;;;;;;5.38;1.50;;;;;;;13.68;69.34;101224.63;5050477;28;20420;-75
2021/12/28 04:17:37;;;;;;;4.18;1.25;;;;;;;13.66;69.37;101230.75;5048885;28;20033;-74
2021/12/28 04:20:08;;;;;;;3.92;1.50;;;;;;;13.66;69.51;101226.34;5049730;28;20045;-74
2021/12/28 04:22:35;;;;;;;6.65;2.20;;;;;;;13.65;69.45;101232.56;5052376;28;20112;-74
2021/12/28 04:25:03;;;;;;;4.28;1.73;;;;;;;13.63;69.59;101226.34;5052703;28;20075;-75
2021/12/28 04:27:31;;;;;;;5.60;1.33;;;;;;;13.64;69.61;101236.06;5062757;28;20032;-74
2021/12/28 04:30:00;;;;;;;3.50;1.30;;;;;;;13.63;69.72;101225.44;5048407;28;20068;-75
2021/12/28 04:32:28;;;;;;;8.27;1.35;;;;;;;13.61;69.63;101224.53;5048256;28;20059;-75
2021/12/28 04:34:55;;;;;;;6.07;1.70;;;;;;;13.61;69.86;101224.53;5049970;28;20497;-75
2021/12/28 04:37:25;;;;;;;6.75;1.38;;;;;;;13.59;69.87;101226.28;5066360;28;20486;-75
2021/12/28 04:39:52;;;;;;;7.22;1.55;;;;;;;13.55;70.01;101231.56;5049984;28;20037;-74
2021/12/28 04:42:20;;;;;;;4.18;1.50;;;;;;;13.57;70.08;101231.56;5049508;28;20049;-74
2021/12/28 04:44:50;;;;;;;5.65;1.13;;;;;;;13.55;70.00;101228.91;5048936;28;20041;-74
2021/12/28 04:47:19;;;;;;;4.38;1.85;;;;;;;13.57;70.03;101232.47;5074111;28;20048;-74
2021/12/28 04:49:47;;;;;;;6.32;1.52;;;;;;;13.56;70.06;101237.75;5077235;28;20049;-74
2021/12/28 04:52:15;;;;;;;3.22;1.55;;;;;;;13.53;69.95;101227.09;5050847;28;20064;-75
2021/12/28 04:54:43;;;;;;;3.97;1.65;;;;;;;13.51;69.93;101227.09;5056993;28;20068;-75
2021/12/28 04:57:11;;;;;;;5.57;1.80;;;;;;;13.50;70.01;101233.28;5069685;28;20115;-75
2021/12/28 04:59:39;;;;;;;4.40;1.40;;;;;;;13.51;69.97;101224.44;5039277;28;20068;-74
2021/12/28 05:02:06;;;;;;;3.92;1.40;;;;;;;13.63;69.84;101236.94;5031752;28;20120;-75
2021/12/28 05:04:35;;;;;;;6.15;2.00;;;;;;;13.66;69.33;101236.97;5048355;28;20037;-77
2021/12/28 05:07:03;;;;;;;4.18;1.60;;;;;;;13.65;69.47;101242.28;5067075;28;20450;-74
2021/12/28 05:09:31;;;;;;;5.80;1.48;;;;;;;13.65;69.53;101234.31;5052446;28;20033;-75
2021/12/28 05:11:59;;;;;;;5.05;1.35;;;;;;;13.71;69.38;101237.94;5060612;28;20123;-75
2021/12/28 05:14:27;;;;;;;6.53;3.70;;;;;;;13.72;69.41;101229.06;5060609;28;20523;-74
2021/12/28 05:16:54;;;;;;;12.88;6.55;;;;;;;13.73;69.38;101225.53;5048328;28;20090;-74
2021/12/28 05:19:22;;;;;;;10.52;6.25;;;;;;;13.75;69.28;101231.75;5064599;28;20044;-75
2021/12/28 05:21:51;;;;;;;15.73;6.55;;;;;;;13.73;69.35;101240.56;5034441;28;20036;-74
2021/12/28 05:24:19;;;;;;;8.38;4.03;;;;;;;13.70;69.40;101232.59;5067788;28;20044;-75
2021/12/28 05:26:47;;;;;;;5.47;2.90;;;;;;;13.69;69.50;101233.47;5059353;28;20056;-76
2021/12/28 05:29:14;;;;;;;4.55;2.50;;;;;;;13.69;69.48;101237.00;5047126;28;20045;-74
2021/12/28 05:31:42;;;;;;;11.40;4.32;;;;;;;13.69;69.73;101233.47;5081153;28;20048;-75
2021/12/28 05:34:10;;;;;;;6.85;3.97;;;;;;;13.71;69.56;101234.38;5037655;28;20409;-75
2021/12/28 05:36:37;;;;;;;6.55;2.92;;;;;;;13.73;69.28;101230.84;5056991;28;20033;-75
2021/12/28 05:39:07;;;;;;;4.88;2.50;;;;;;;13.80;68.91;101227.38;5030215;28;20064;-75
2021/12/28 05:41:35;;;;;;;6.30;2.33;;;;;;;13.83;68.83;101231.84;5082375;28;20512;-75
2021/12/28 05:44:02;;;;;;;8.73;2.80;;;;;;;13.87;68.60;101229.22;5062463;28;20037;-74
2021/12/28 05:46:30;;;;;;;3.03;1.30;;;;;;;13.93;68.42;101228.38;5035060;28;20489;-75
2021/12/28 05:48:58;;;;;;;5.65;2.30;;;;;;;14.02;68.11;101228.50;5080001;28;20045;-74
2021/12/28 05:51:25;;;;;;;6.07;3.05;;;;;;;14.05;67.80;101228.50;5061316;28;20045;-74
2021/12/28 05:53:53;;;;;;;7.45;5.03;;;;;;;14.10;67.54;101216.19;5076258;28;20049;-75
2021/12/28 05:56:23;;;;;;;5.13;3.05;;;;;;;14.16;67.44;101233.91;5066642;28;20065;-75
2021/12/28 05:58:51;;;;;;;7.28;2.50;;;;;;;14.21;67.12;101235.72;5062836;28;20055;-75
2021/12/28 06:01:19;;;;;;;10.93;1.98;;;;;;;14.24;67.17;101225.13;5072908;28;20127;-75
2021/12/28 06:03:46;;;;;;;2.45;1.30;;;;;;;14.30;66.95;101222.53;5061761;28;20504;-74
2021/12/28 06:06:14;;;;;;;3.33;1.30;;;;;;;14.37;66.76;101220.81;5043373;28;20132;-74
2021/12/28 06:08:42;;;;;;;4.20;1.33;;;;;;;14.42;66.58;101229.75;5050711;28;20041;-74
2021/12/28 06:11:12;;;;;;;1.58;0.88;;;;;;;14.46;65.82;101228.88;5078495;28;20044;-74
2021/12/28 06:13:42;;;;;;;5.57;1.73;;;;;;;14.56;65.36;101230.72;5034351;28;20037;-75
2021/12/28 06:16:10;;;;;;;21.65;10.68;;;;;;;14.56;65.55;101238.69;5050863;28;20049;-74
2021/12/28 06:18:38;;;;;;;14.38;6.50;;;;;;;14.60;65.81;101228.97;5049791;28;20041;-75
2021/12/28 06:21:06;;;;;;;6.03;2.58;;;;;;;14.62;66.30;101233.44;5050997;28;20041;-75
2021/12/28 06:23:34;;;;;;;6.80;1.85;;;;;;;14.68;66.57;101235.22;5051446;28;20044;-74
2021/12/28 06:26:01;;;;;;;5.10;1.35;;;;;;;14.75;67.12;101226.41;5047951;28;20048;-74
2021/12/28 06:28:29;;;;;;;4.22;1.10;;;;;;;14.89;67.38;101232.72;5076676;28;20485;-75
2021/12/28 06:30:59;;;;;;;4.97;1.58;;;;;;;15.05;67.40;101242.53;5049021;28;20124;-74
2021/12/28 06:33:28;;;;;;;3.90;1.58;;;;;;;15.27;67.32;101232.88;5059128;28;20040;-76
2021/12/28 06:35:55;;;;;;;5.13;1.10;;;;;;;15.55;66.81;101231.25;5072239;28;20127;-75
2021/12/28 06:38:23;;;;;;;2.55;1.08;;;;;;;15.78;66.29;101229.50;5059062;28;20045;-75
2021/12/28 06:40:51;;;;;;;6.90;1.48;;;;;;;15.97;65.64;101229.53;5050902;28;20071;-75
2021/12/28 06:43:19;;;;;;;4.32;1.50;;;;;;;16.14;65.23;101231.34;5050237;28;20041;-75
2021/12/28 06:45:47;;;;;;;5.45;1.95;;;;;;;16.29;65.07;101233.09;5060456;28;20052;-76
2021/12/28 06:48:16;;;;;;;7.55;1.77;;;;;;;16.43;64.38;101228.66;5052235;28;20554;-74
2021/12/28 06:50:44;;;;;;;4.03;1.25;;;;;;;16.55;64.15;101233.06;5052641;28;20095;-74
2021/12/28 06:53:11;;;;;;;4.78;1.40;;;;;;;16.69;63.92;101234.84;5054257;28;20061;-74
2021/12/28 06:55:39;;;;;;;5.95;1.35;;;;;;;16.81;63.63;101238.38;5061330;28;20044;-75
2021/12/28 06:58:07;;;;;;;6.28;1.67;;;;;;;16.90;63.17;101222.38;5057472;28;20044;-75
2021/12/28 07:00:37;;;;;;;4.82;1.10;;;;;;;16.97;62.77;101219.69;5051624;28;20930;-75
2021/12/28 07:03:05;;;;;;;5.43;1.73;;;;;;;17.09;62.56;101218.75;5056648;28;20098;-75
2021/12/28 07:05:35;;;;;;;4.75;1.35;;;;;;;17.15;62.31;101229.41;5055628;28;20424;-75
2021/12/28 07:08:03;;;;;;;3.40;1.27;;;;;;;17.26;62.58;101214.25;5062669;28;20095;-75
2021/12/28 07:10:31;;;;;;;4.38;1.25;;;;;;;17.42;62.18;101223.06;5058790;28;20572;-74
2021/12/28 07:12:59;;;;;;;4.72;1.42;;;;;;;17.48;61.81;101223.91;5053234;28;20061;-74
2021/12/28 07:15:27;;;;;;;13.57;1.75;;;;;;;17.56;61.86;101215.84;5057052;28;20122;-75
2021/12/28 07:17:55;;;;;;;3.63;1.30;;;;;;;17.68;61.74;101214.94;5053367;28;20052;-75
2021/12/28 07:20:22;;;;;;;3.78;1.25;;;;;;;17.79;61.22;101215.72;5061047;28;20123;-75
2021/12/28 07:22:52;;;;;;;6.25;1.38;;;;;;;17.99;61.13;101207.59;5070868;28;20044;-73
2021/12/28 07:25:20;;;;;;;9.25;1.88;;;;;;;18.07;60.19;101187.94;5069885;28;20500;-74
2021/12/28 07:27:48;;;;;;;5.85;1.67;;;;;;;17.74;60.53;101207.75;5061152;28;20059;-75
2021/12/28 07:30:16;;;;;;;7.18;1.15;;;;;;;17.53;61.50;101210.53;5054512;28;20040;-76
2021/12/28 07:32:44;;;;;;;6.32;1.92;;;;;;;17.43;62.16;101207.03;5050907;28;20044;-75
2021/12/28 07:35:13;;;;;;;6.50;1.40;;;;;;;17.44;62.62;101200.81;5049607;28;20056;-75
2021/12/28 07:37:41;;;;;;;9.02;1.30;;;;;;;17.41;62.79;101192.81;5050745;28;20396;-75
2021/12/28 07:40:12;;;;;;;4.55;1.63;;;;;;;17.47;62.86;101205.22;5054829;28;20421;-76
2021/12/28 07:42:41;;;;;;;7.72;1.38;;;;;;;17.49;63.03;101208.78;5076295;28;20038;-75
2021/12/28 07:45:11;;;;;;;4.70;1.70;;;;;;;17.88;62.64;101194.31;5049837;28;20049;-75
2021/12/28 07:47:38;;;;;;;7.75;1.75;;;;;;;17.86;62.48;101194.31;5050649;28;20036;-76
2021/12/28 07:50:08;;;;;;;5.25;1.50;;;;;;;17.96;62.67;101205.84;5033051;28;20045;-75
2021/12/28 07:52:36;;;;;;;6.13;1.88;;;;;;;18.32;61.78;101207.31;5049063;28;20756;-75
2021/12/28 07:55:05;;;;;;;7.32;1.45;;;;;;;18.58;61.82;101207.97;5050264;28;20052;-75
2021/12/28 07:57:35;;;;;;;8.43;1.65;;;;;;;18.64;61.70;101197.22;5068381;28;20102;-75
2021/12/28 08:00:05;;;;;;;5.53;1.70;;;;;;;18.45;61.89;101202.72;5072399;28;20050;-75
2021/12/28 08:02:39;;;;;;;11.63;1.98;;;;;;;18.12;62.83;101190.56;5071235;28;20059;-77
2021/12/28 08:05:08;;;;;;;7.15;1.30;;;;;;;17.87;63.65;101196.09;5085655;28;20045;-78
2021/12/28 08:07:36;;;;;;;6.40;1.33;;;;;;;17.82;64.51;101191.69;5070321;28;20040;-75
2021/12/28 08:10:05;;;;;;;4.38;1.40;;;;;;;18.10;63.99;101185.25;5068678;28;20044;-76
2021/12/28 08:12:35;;;;;;;4.82;1.45;;;;;;;18.48;63.17;101190.22;5068620;28;20041;-75
2021/12/28 08:15:03;;;;;;;8.57;2.05;;;;;;;18.76;61.70;101187.31;5070385;28;20048;-75
2021/12/28 08:17:32;;;;;;;7.82;1.90;;;;;;;18.94;61.14;101195.13;5070308;28;20037;-75
2021/12/28 08:20:00;;;;;;;7.97;1.70;;;;;;;19.13;61.17;101182.38;5070444;28;20064;-76
2021/12/28 08:22:27;;;;;;;7.63;2.17;;;;;;;19.34;60.54;101174.09;5070395;28;20036;-75
2021/12/28 08:24:55;;;;;;;5.65;2.05;;;;;;;19.39;59.86;101172.22;5070525;28;20087;-76
2021/12/28 08:27:23;;;;;;;6.75;1.80;;;;;;;19.43;59.54;101153.41;5070568;28;20496;-76
2021/12/28 08:29:53;;;;;;;9.43;2.08;;;;;;;19.55;59.78;101183.66;5069284;28;20517;-77
2021/12/28 08:32:21;;;;;;;3.55;1.33;;;;;;;19.58;59.64;101170.19;5068714;28;20063;-76
2021/12/28 08:34:48;;;;;;;9.35;1.70;;;;;;;19.71;59.66;101170.00;5070309;28;20135;-74
2021/12/28 08:37:16;;;;;;;7.93;1.75;;;;;;;19.77;58.66;101158.28;5065895;28;20105;-76
2021/12/28 08:39:43;;;;;;;5.57;1.95;;;;;;;19.78;58.84;101163.63;5078250;28;20060;-78
2021/12/28 08:42:12;;;;;;;8.38;1.75;;;;;;;19.82;57.75;101157.28;5057283;28;20566;-78
2021/12/28 08:44:39;;;;;;;6.57;1.80;;;;;;;19.86;58.65;101158.16;5048499;28;20124;-76
2021/12/28 08:47:09;;;;;;;5.32;1.77;;;;;;;20.01;58.16;101149.88;5048749;28;20136;-76
2021/12/28 08:49:36;;;;;;;9.45;2.17;;;;;;;20.02;57.50;101156.13;5048811;28;20386;-76
2021/12/28 08:52:05;;;;;;;6.93;1.58;;;;;;;20.07;57.69;101162.28;5049784;28;20045;-76
2021/12/28 08:54:33;;;;;;;6.18;1.33;;;;;;;20.18;57.86;101155.81;5032198;28;20037;-76
2021/12/28 08:57:01;;;;;;;6.57;1.70;;;;;;;20.30;57.23;101162.75;5056401;28;20698;-76
2021/12/28 08:59:28;;;;;;;8.70;2.00;;;;;;;20.35;56.74;101146.63;5068204;28;20075;-76
2021/12/28 09:01:56;;;;;;;7.50;1.75;;;;;;;20.38;56.29;101136.72;5068395;28;20048;-76
2021/12/28 09:04:25;;;;;;;5.07;1.92;;;;;;;20.25;55.76;101127.09;5068036;28;20036;-76
2021/12/28 09:06:53;;;;;;;8.90;1.98;;;;;;;20.29;56.75;101134.16;5064366;28;20044;-75
2021/12/28 09:09:21;;;;;;;4.15;1.58;;;;;;;20.34;56.51;101124.28;5033261;28;20116;-75
2021/12/28 09:11:49;;;;;;;5.35;1.50;;;;;;;20.42;56.09;101116.06;5048434;28;20124;-75
2021/12/28 09:14:17;;;;;;;7.18;2.45;;;;;;;20.44;55.83;101114.25;5047501;28;20044;-77
2021/12/28 09:16:44;;;;;;;2.83;0.95;;;;;;;20.42;55.73;101127.69;5060545;28;20045;-75
2021/12/28 09:19:12;;;;;;;9.07;2.15;;;;;;;20.47;56.08;101103.47;5055565;28;20052;-76
2021/12/28 09:21:41;;;;;;;13.93;1.95;;;;;;;20.51;55.18;101107.84;5062141;28;20040;-78
2021/12/28 09:24:10;;;;;;;8.75;2.05;;;;;;;20.50;54.97;101104.28;5067823;28;20052;-78
2021/12/28 09:26:38;;;;;;;7.32;1.88;;;;;;;20.49;55.57;101080.16;5048550;28;20583;-78
2021/12/28 09:29:06;;;;;;;10.07;2.05;;;;;;;20.44;55.68;101093.69;5079385;28;20041;-75
2021/12/28 09:31:34;;;;;;;6.80;1.73;;;;;;;20.44;56.05;101091.00;5049398;28;20132;-76
2021/12/28 09:34:01;;;;;;;7.88;1.80;;;;;;;20.44;56.02;101087.44;5047595;28;20055;-76
2021/12/28 09:36:29;;;;;;;9.77;3.35;;;;;;;20.45;56.08;101094.56;5046989;28;20045;-77
2021/12/28 09:38:59;;;;;;;9.10;2.03;;;;;;;20.45;56.28;101082.03;5046607;28;20104;-75
2021/12/28 09:41:27;;;;;;;4.68;1.80;;;;;;;20.43;55.40;101080.28;5058323;28;20037;-76
2021/12/28 09:43:55;;;;;;;8.50;2.00;;;;;;;20.43;55.33;101075.81;5063851;28;20037;-76
2021/12/28 09:46:23;;;;;;;13.15;3.15;;;;;;;20.51;55.94;101064.94;5048087;28;20034;-76
2021/12/28 09:48:50;;;;;;;8.07;2.55;;;;;;;20.51;55.76;101051.53;5063749;28;20049;-76
2021/12/28 09:51:18;;;;;;;6.63;1.95;;;;;;;20.49;56.25;101032.78;5049020;28;20041;-76
2021/12/28 09:53:46;;;;;;;7.53;2.40;;;;;;;20.43;56.15;101045.44;5077179;28;20045;-77
2021/12/28 09:56:15;;;;;;;8.82;2.47;;;;;;;20.37;56.46;101038.41;5080250;28;20045;-77
2021/12/28 09:58:43;;;;;;;7.53;1.55;;;;;;;20.34;56.41;101035.78;5047832;28;20261;-77
2021/12/28 10:01:11;;;;;;;8.23;2.25;;;;;;;20.29;56.20;101041.19;5057965;28;20139;-76
2021/12/28 10:03:39;;;;;;;8.85;1.75;;;;;;;20.39;56.11;101041.94;5058996;28;20037;-76
2021/12/28 10:06:19;;;;;;;7.32;2.22;;;;;;;20.47;55.71;101021.22;5049387;28;20509;-75
2021/12/28 10:08:47;;;;;;;11.85;2.63;;;;;;;20.49;55.50;101030.09;5048096;28;20141;-75
2021/12/28 10:11:17;;;;;;;5.82;1.98;;;;;;;20.56;55.39;101031.72;5047198;28;20071;-76
2021/12/28 10:13:45;;;;;;;6.50;1.80;;;;;;;20.55;54.91;101005.81;5049673;28;20120;-76
2021/12/28 10:16:13;;;;;;;8.50;1.70;;;;;;;20.50;54.30;101005.03;5046797;28;20094;-77
2021/12/28 10:18:41;;;;;;;12.02;4.63;;;;;;;20.55;54.13;101003.13;5079046;28;20080;-75
2021/12/28 10:21:09;;;;;;;7.90;1.98;;;;;;;20.52;54.94;101005.00;5031353;28;20041;-76
2021/12/28 10:23:36;;;;;;;11.23;2.22;;;;;;;20.50;54.57;100999.66;5080878;28;20052;-75
2021/12/28 10:26:07;;;;;;;8.70;2.80;;;;;;;20.52;54.94;100980.88;5049771;28;20450;-76
2021/12/28 10:28:39;;;;;;;9.18;2.08;;;;;;;20.46;53.64;100997.09;5048345;28;20072;-74
2021/12/28 10:31:09;;;;;;;6.65;1.63;;;;;;;20.32;54.17;100992.00;5051091;28;20037;-75
2021/12/28 10:33:40;;;;;;;8.48;2.03;;;;;;;20.36;55.08;100985.66;5047400;28;20048;-77
2021/12/28 10:36:10;;;;;;;9.32;1.95;;;;;;;20.47;55.37;100975.63;5049169;28;20045;-76
2021/12/28 10:38:41;;;;;;;14.30;2.40;;;;;;;20.47;55.18;100983.66;5049895;28;20076;-75
2021/12/28 10:41:11;;;;;;;7.75;1.60;;;;;;;20.45;55.64;100977.44;5063879;28;20386;-76
2021/12/28 10:43:43;;;;;;;4.95;1.55;;;;;;;20.38;55.58;100977.59;5061979;28;20044;-79
2021/12/28 10:46:13;;;;;;;11.07;2.10;;;;;;;20.29;55.61;100965.22;5066439;28;20396;-79
2021/12/28 10:48:46;;;;;;;7.03;1.85;;;;;;;20.25;55.92;100974.25;5050903;28;20037;-77
2021/12/28 10:51:18;;;;;;;16.73;3.60;;;;;;;20.25;55.75;100931.34;5062500;28;20045;-79
2021/12/28 10:53:55;;;;;;;11.10;3.03;;;;;;;20.21;56.62;100945.75;5054733;28;20470;-76
2021/12/28 10:56:24;;;;;;;15.43;3.17;;;;;;;20.15;56.32;100945.88;5058653;28;20515;-76
2021/12/28 10:58:54;;;;;;;12.38;2.55;;;;;;;20.13;57.33;100951.28;5052337;28;20045;-79
2021/12/28 11:01:23;;;;;;;6.05;1.75;;;;;;;20.19;57.33;100931.50;5055770;28;20041;-75
2021/12/28 11:03:53;;;;;;;9.65;1.95;;;;;;;20.20;57.63;100927.91;5072816;28;20123;-77
2021/12/28 11:06:24;;;;;;;6.00;1.92;;;;;;;20.13;56.82;100923.56;5063872;28;20041;-77
2021/12/28 11:08:54;;;;;;;11.50;2.75;;;;;;;20.08;57.44;100944.25;5055367;28;20132;-76
2021/12/28 11:11:24;;;;;;;11.05;2.53;;;;;;;20.07;56.38;100921.91;5044911;28;20060;-75
2021/12/28 11:13:56;;;;;;;9.52;2.17;;;;;;;20.05;56.79;100909.44;5049632;28;20041;-75
2021/12/28 11:16:26;;;;;;;5.60;1.50;;;;;;;20.00;57.29;100919.38;5058165;28;20041;-76
2021/12/28 11:18:55;;;;;;;12.45;2.42;;;;;;;20.01;57.73;100927.41;5051329;28;20524;-76
2021/12/28 11:21:25;;;;;;;9.82;2.25;;;;;;;19.98;57.25;100905.13;5087372;28;20047;-76
2021/12/28 11:23:55;;;;;;;10.90;2.53;;;;;;;19.99;58.27;100915.81;5071206;28;20048;-76
2021/12/28 11:26:26;;;;;;;7.18;1.67;;;;;;;20.02;58.77;100901.50;5061366;28;20061;-76
2021/12/28 11:29:02;;;;;;;8.63;2.03;;;;;;;19.85;58.25;100901.81;5044110;28;20071;-77
2021/12/28 11:31:35;;;;;;;10.20;2.30;;;;;;;19.71;57.88;100912.81;5049691;28;20060;-76